Time;durP1;ratioP1;P1;durP2;ratioP2;P2;SDS_P1;SDS_P2;PMS_P1;PMS_P2;Temp;Humidity;BMP_temperature;BMP_pressure;BME280_temperature;BME280_humidity;BME280_pressure;Samples;Min_cycle;Max_cycle;Signal;HPM_P1;HPM_P2
2022/10/11 00:01:58;;;;;;;17.25;5.18;;;;;;;16.91;70.99;99602.06;5170598;28;20065;-83
2022/10/11 00:04:51;;;;;;;15.85;5.47;;;;;;;16.86;70.13;99614.31;5156704;28;20052;-82
2022/10/11 00:07:41;;;;;;;11.00;4.50;;;;;;;16.80;70.87;99614.97;5175416;28;20053;-81
2022/10/11 00:10:32;;;;;;;9.68;4.85;;;;;;;16.82;70.54;99612.94;5152116;28;20058;-82
2022/10/11 00:13:23;;;;;;;9.48;4.32;;;;;;;16.67;70.40;99576.13;5183036;28;20133;-81
2022/10/11 00:16:14;;;;;;;19.67;5.45;;;;;;;16.49;69.87;99588.00;5166955;28;20061;-80
2022/10/11 00:19:04;;;;;;;12.68;4.90;;;;;;;16.55;70.30;99606.91;5173241;28;20184;-81
2022/10/11 00:21:54;;;;;;;11.30;4.72;;;;;;;16.35;70.21;99592.19;5174921;28;20430;-81
2022/10/11 00:24:44;;;;;;;14.23;5.30;;;;;;;16.29;70.51;99604.41;5164208;28;20161;-80
2022/10/11 00:27:35;;;;;;;19.17;4.78;;;;;;;16.21;69.91;99593.66;5177307;28;20100;-80
2022/10/11 00:30:25;;;;;;;10.82;4.95;;;;;;;16.24;70.33;99614.75;5149524;28;20081;-82
2022/10/11 00:33:16;;;;;;;13.23;4.93;;;;;;;15.85;70.67;99588.56;5156086;28;20061;-81
2022/10/11 00:36:07;;;;;;;8.43;4.30;;;;;;;15.75;71.21;99606.59;5164026;28;20119;-81
2022/10/11 00:38:58;;;;;;;10.07;4.72;;;;;;;15.72;70.31;99609.59;5165413;28;20144;-82
2022/10/11 00:41:48;;;;;;;10.25;4.70;;;;;;;15.39;70.56;99585.38;5159318;28;20098;-81
2022/10/11 00:44:47;;;;;;;14.90;4.68;;;;;;;15.46;69.95;99589.09;5170410;28;20050;-81
2022/10/11 00:47:39;;;;;;;8.82;4.20;;;;;;;15.48;70.25;99611.16;5168998;28;20114;-82
2022/10/11 00:50:37;;;;;;;15.20;4.53;;;;;;;15.28;70.19;99580.31;5171027;28;20050;-82
2022/10/11 00:53:30;;;;;;;12.20;5.20;;;;;;;15.43;70.32;99605.47;5365400;23;20068;-75
2022/10/11 00:56:30;;;;;;;9.73;4.85;;;;;;;15.31;70.48;99619.25;5172062;28;20064;-74
2022/10/11 00:59:25;;;;;;;16.65;4.90;;;;;;;15.24;70.41;99627.06;5192425;28;20147;-72
2022/10/11 01:02:17;;;;;;;13.40;6.25;;;;;;;15.06;71.03;99627.09;5187220;28;20054;-72
2022/10/11 01:05:09;;;;;;;14.00;6.07;;;;;;;15.39;71.43;99624.63;5176556;28;20049;-73
2022/10/11 01:08:19;;;;;;;15.63;5.60;;;;;;;15.29;71.83;99632.75;5179635;28;20049;-72
2022/10/11 01:11:14;;;;;;;14.77;6.93;;;;;;;15.29;72.63;99635.44;5177203;28;20523;-72
2022/10/11 01:14:33;;;;;;;15.85;6.07;;;;;;;15.39;72.00;99641.50;5180504;28;20167;-72
2022/10/11 01:17:59;;;;;;;20.45;6.95;;;;;;;15.49;72.16;99636.84;5179907;28;20042;-73
2022/10/11 01:20:58;;;;;;;17.38;7.30;;;;;;;15.49;72.14;99636.84;5175065;28;20053;-73
2022/10/11 01:24:20;;;;;;;15.57;7.63;;;;;;;15.54;72.69;99639.06;5180903;28;20084;-72
2022/10/11 01:27:46;;;;;;;9.55;6.60;;;;;;;15.52;72.60;99633.88;5178090;28;20112;-72
2022/10/11 01:30:37;;;;;;;16.83;7.20;;;;;;;15.61;74.00;99639.28;5170213;28;20084;-73
2022/10/11 01:33:31;;;;;;;13.50;6.85;;;;;;;15.70;72.46;99638.34;5179064;28;20068;-73
2022/10/11 01:36:32;;;;;;;15.60;7.07;;;;;;;15.45;72.57;99587.41;5178671;28;20057;-72
2022/10/11 01:39:32;;;;;;;25.60;7.93;;;;;;;15.78;72.18;99638.38;5178384;28;20127;-73
2022/10/11 01:42:24;;;;;;;15.95;7.85;;;;;;;15.85;72.26;99641.22;5180712;28;20528;-73
2022/10/11 01:45:17;;;;;;;17.13;8.32;;;;;;;15.87;72.31;99650.78;5181048;28;20091;-72
2022/10/11 01:48:12;;;;;;;18.75;7.93;;;;;;;15.74;72.44;99645.03;5179835;28;20125;-72
2022/10/11 01:51:02;;;;;;;16.52;7.68;;;;;;;15.55;72.04;99648.75;5175707;28;20074;-72
2022/10/11 01:54:01;;;;;;;16.23;7.60;;;;;;;15.47;72.45;99644.22;5183548;28;20096;-73
2022/10/11 01:57:29;;;;;;;15.13;7.50;;;;;;;15.39;71.89;99640.66;5179420;28;20061;-73
2022/10/11 02:00:21;;;;;;;12.68;7.85;;;;;;;15.32;71.62;99644.97;5178388;28;20085;-72
2022/10/11 02:03:23;;;;;;;11.70;6.88;;;;;;;15.22;71.50;99645.06;5179494;28;20054;-73
2022/10/11 02:06:31;;;;;;;16.15;7.10;;;;;;;15.02;71.20;99650.63;5178841;28;20154;-73
2022/10/11 02:09:45;;;;;;;18.58;8.02;;;;;;;15.17;71.40;99636.72;5177810;28;20172;-73
2022/10/11 02:12:41;;;;;;;;;;;;;;;15.20;71.69;99647.91;5181597;28;20170;-73
2022/10/11 02:15:35;;;;;;;17.88;8.95;;;;;;;15.09;72.12;99647.31;5183159;28;19922;-72
2022/10/11 02:18:31;;;;;;;14.68;8.52;;;;;;;15.16;71.75;99645.69;5177488;28;20424;-73
2022/10/11 02:21:22;;;;;;;21.30;9.13;;;;;;;15.24;72.22;99648.44;5182471;28;20147;-72
2022/10/11 02:24:21;;;;;;;20.77;10.95;;;;;;;15.33;73.46;99649.31;5181240;28;20126;-73
2022/10/11 02:27:12;;;;;;;24.08;11.50;;;;;;;15.41;73.35;99642.19;5182101;28;20552;-72
2022/10/11 02:30:06;;;;;;;27.17;12.68;;;;;;;15.40;73.60;99629.81;5176061;28;20050;-73
2022/10/11 02:33:01;;;;;;;29.98;12.57;;;;;;;15.55;73.02;99651.44;5177014;28;20654;-73
2022/10/11 02:36:00;;;;;;;29.85;14.57;;;;;;;15.63;73.84;99648.81;5177739;28;20057;-73
2022/10/11 02:38:56;;;;;;;36.03;15.90;;;;;;;15.70;74.09;99644.53;5176655;28;20049;-73
2022/10/11 02:41:49;;;;;;;43.83;16.60;;;;;;;15.77;73.71;99650.06;5179139;28;20530;-73
2022/10/11 02:44:49;;;;;;;32.70;16.00;;;;;;;15.88;73.82;99657.78;5189397;28;20057;-73
2022/10/11 02:47:41;;;;;;;35.83;17.00;;;;;;;15.92;73.71;99656.44;5175646;28;20868;-72
2022/10/11 02:50:31;;;;;;;41.33;17.17;;;;;;;15.94;73.52;99661.66;5176242;28;20069;-73
2022/10/11 02:53:24;;;;;;;37.45;16.60;;;;;;;16.00;73.57;99657.50;5178703;28;20201;-73
2022/10/11 02:56:14;;;;;;;36.22;17.65;;;;;;;16.05;73.23;99660.50;5178706;28;20065;-73
2022/10/11 02:59:04;;;;;;;44.40;18.67;;;;;;;15.96;73.58;99649.81;5176342;28;20046;-73
2022/10/11 03:01:53;;;;;;;43.17;18.67;;;;;;;16.01;73.88;99664.53;5179302;28;20053;-73
2022/10/11 03:04:44;;;;;;;32.25;16.45;;;;;;;16.11;73.34;99663.38;5181037;28;20049;-72
2022/10/11 03:07:34;;;;;;;45.22;17.88;;;;;;;16.13;73.14;99657.88;5182099;28;20045;-73
2022/10/11 03:10:24;;;;;;;46.60;18.80;;;;;;;16.24;72.97;99670.09;5181111;28;20669;-73
2022/10/11 03:13:14;;;;;;;44.40;17.83;;;;;;;16.15;73.25;99662.03;5179920;28;20094;-73
2022/10/11 03:16:07;;;;;;;36.70;17.70;;;;;;;16.13;73.36;99660.56;5180424;28;20050;-72
2022/10/11 03:18:58;;;;;;;44.30;17.83;;;;;;;16.21;72.80;99673.94;5179219;28;20129;-73
2022/10/11 03:21:48;;;;;;;40.72;17.27;;;;;;;16.17;72.84;99669.91;5180443;28;20515;-73
2022/10/11 03:24:38;;;;;;;35.65;17.77;;;;;;;16.11;72.71;99663.38;5173992;28;20134;-73
2022/10/11 03:27:28;;;;;;;37.28;17.25;;;;;;;16.12;71.75;99669.56;5180876;28;20538;-73
2022/10/11 03:30:19;;;;;;;35.60;16.17;;;;;;;16.09;72.47;99681.44;5179556;28;20049;-72
2022/10/11 03:33:09;;;;;;;42.05;18.23;;;;;;;16.16;72.29;99676.28;5181408;28;20060;-75
2022/10/11 03:35:58;;;;;;;43.78;17.38;;;;;;;16.06;72.56;99679.09;5178736;28;20076;-73
2022/10/11 03:38:48;;;;;;;35.97;16.75;;;;;;;16.17;72.52;99677.94;5181753;28;20053;-73
2022/10/11 03:41:38;;;;;;;38.28;17.17;;;;;;;16.19;71.90;99681.28;5180779;28;20478;-73
2022/10/11 03:44:29;;;;;;;42.97;18.15;;;;;;;16.26;72.27;99682.31;5178182;28;20041;-75
2022/10/11 03:47:19;;;;;;;32.30;16.80;;;;;;;16.11;72.20;99689.28;5173067;28;20077;-73
2022/10/11 03:50:09;;;;;;;36.25;16.33;;;;;;;16.08;71.63;99689.63;5178108;28;20052;-73
2022/10/11 03:52:59;;;;;;;35.22;17.05;;;;;;;15.73;72.36;99654.91;5178840;28;20127;-73
2022/10/11 03:55:54;;;;;;;38.78;16.98;;;;;;;15.97;72.83;99696.09;5181182;28;20432;-73
2022/10/11 03:58:44;;;;;;;38.28;18.02;;;;;;;15.88;72.60;99675.66;5175779;28;20526;-73
2022/10/11 04:01:36;;;;;;;35.03;17.00;;;;;;;16.04;72.01;99699.81;5176820;28;20108;-73
2022/10/11 04:04:27;;;;;;;35.38;17.13;;;;;;;15.95;72.46;99701.59;5176484;28;20139;-73
2022/10/11 04:07:17;;;;;;;45.47;17.17;;;;;;;16.03;72.42;99697.31;5180693;28;20081;-74
2022/10/11 04:10:07;;;;;;;34.58;17.40;;;;;;;15.94;72.26;99699.94;5180121;28;20052;-76
2022/10/11 04:12:57;;;;;;;35.30;17.67;;;;;;;15.72;73.68;99695.16;5174840;28;20057;-75
2022/10/11 04:15:48;;;;;;;41.78;17.20;;;;;;;15.86;72.99;99702.59;5176794;28;20448;-75
2022/10/11 04:18:38;;;;;;;46.10;18.35;;;;;;;15.77;73.39;99719.59;5173339;28;20050;-77
2022/10/11 04:21:28;;;;;;;46.33;18.08;;;;;;;15.73;73.58;99711.06;5175383;28;20089;-75
2022/10/11 04:24:18;;;;;;;39.80;17.17;;;;;;;15.75;72.78;99713.56;5179551;28;20056;-73
2022/10/11 04:27:08;;;;;;;36.90;18.35;;;;;;;15.74;72.17;99710.03;5175593;28;20057;-73
2022/10/11 04:29:58;;;;;;;43.35;18.98;;;;;;;15.47;73.35;99704.84;5175535;28;20053;-76
2022/10/11 04:32:48;;;;;;;36.58;17.13;;;;;;;15.60;72.93;99721.31;5175681;28;20091;-71
2022/10/11 04:35:39;;;;;;;40.03;17.77;;;;;;;15.45;72.91;99722.88;5179311;28;20057;-72
2022/10/11 04:38:29;;;;;;;32.28;16.95;;;;;;;15.46;71.67;99720.06;5180465;28;20407;-73
2022/10/11 04:41:19;;;;;;;39.28;17.13;;;;;;;15.38;71.69;99728.00;5177380;28;20560;-74
2022/10/11 04:44:09;;;;;;;35.53;17.05;;;;;;;15.28;71.78;99728.09;5178562;28;20076;-71
2022/10/11 04:46:59;;;;;;;34.65;16.13;;;;;;;15.28;71.68;99729.94;5179536;28;20133;-73
2022/10/11 04:49:49;;;;;;;36.30;17.13;;;;;;;15.02;72.05;99714.72;5172078;28;20523;-75
2022/10/11 04:52:39;;;;;;;39.97;17.08;;;;;;;15.03;72.31;99720.88;5175048;28;20694;-71
2022/10/11 04:55:29;;;;;;;32.60;15.27;;;;;;;15.02;71.51;99741.41;5177631;28;20781;-70
2022/10/11 04:58:20;;;;;;;30.17;16.42;;;;;;;14.72;71.74;99697.28;5178296;28;20100;-74
2022/10/11 05:01:10;;;;;;;32.40;15.77;;;;;;;14.96;71.27;99744.69;5177436;28;20523;-72
2022/10/11 05:04:00;;;;;;;41.88;16.55;;;;;;;15.02;72.08;99738.75;5179413;28;20064;-72
2022/10/11 05:06:50;;;;;;;29.88;14.48;;;;;;;14.98;71.93;99748.06;5177079;28;20054;-73
2022/10/11 05:09:41;;;;;;;27.55;14.95;;;;;;;14.96;71.83;99750.03;5178670;28;20143;-73
2022/10/11 05:12:31;;;;;;;37.10;16.55;;;;;;;15.11;71.70;99744.16;5178065;28;20050;-73
2022/10/11 05:15:21;;;;;;;32.20;15.55;;;;;;;14.93;72.19;99742.38;5178880;28;20175;-73
2022/10/11 05:18:11;;;;;;;36.60;17.45;;;;;;;14.97;72.21;99748.22;5179421;28;20057;-73
2022/10/11 05:21:17;;;;;;;42.33;18.23;;;;;;;15.18;72.52;99746.06;5181139;28;20107;-73
2022/10/11 05:24:07;;;;;;;35.83;18.60;;;;;;;15.06;72.41;99725.09;5182878;28;20427;-73
2022/10/11 05:26:57;;;;;;;35.13;17.85;;;;;;;15.11;73.25;99758.38;5177020;28;20420;-73
2022/10/11 05:29:52;;;;;;;36.67;18.25;;;;;;;15.09;73.08;99762.19;5176961;28;20112;-71
2022/10/11 05:32:42;;;;;;;39.15;17.50;;;;;;;15.04;73.15;99766.16;5185245;28;20184;-73
2022/10/11 05:35:32;;;;;;;32.08;17.55;;;;;;;15.05;72.58;99766.97;5185617;28;20054;-73
2022/10/11 05:38:22;;;;;;;32.20;17.48;;;;;;;15.07;72.61;99770.34;5176768;28;20072;-73
2022/10/11 05:41:13;;;;;;;33.90;16.95;;;;;;;15.14;72.84;99766.06;5178561;28;20065;-73
2022/10/11 05:44:07;;;;;;;36.15;15.93;;;;;;;15.10;73.35;99766.50;5170489;28;20060;-73
2022/10/11 05:46:57;;;;;;;38.38;16.63;;;;;;;15.17;72.83;99772.94;5220819;22;20045;-85
2022/10/11 05:49:48;;;;;;;40.15;17.83;;;;;;;15.13;73.36;99764.41;5172900;28;20049;-86
2022/10/11 05:52:38;;;;;;;35.17;17.60;;;;;;;15.21;72.76;99767.13;5183335;28;20058;-85
2022/10/11 05:55:28;;;;;;;38.50;17.75;;;;;;;15.25;73.69;99778.34;5177927;28;20050;-85
2022/10/11 05:58:18;;;;;;;42.67;19.13;;;;;;;15.32;73.01;99776.72;5188861;28;20149;-84
2022/10/11 06:01:17;;;;;;;35.00;18.25;;;;;;;15.18;72.96;99743.38;5187334;28;20136;-84
2022/10/11 06:04:10;;;;;;;42.72;19.02;;;;;;;15.49;73.14;99783.84;5184526;28;20053;-84
2022/10/11 06:07:00;;;;;;;35.72;17.35;;;;;;;15.29;72.55;99747.63;5170772;28;20053;-84
2022/10/11 06:09:51;;;;;;;45.08;18.45;;;;;;;15.45;72.15;99779.81;5185762;28;20507;-83
2022/10/11 06:12:41;;;;;;;38.20;18.10;;;;;;;15.50;73.50;99806.94;5172799;28;20057;-84
2022/10/11 06:15:40;;;;;;;35.67;16.75;;;;;;;15.38;72.81;99788.63;5187196;28;20132;-84
2022/10/11 06:18:30;;;;;;;30.92;16.50;;;;;;;15.60;72.55;99808.69;5185373;28;20046;-83
2022/10/11 06:21:21;;;;;;;30.75;16.45;;;;;;;15.43;72.56;99786.31;5170219;28;20164;-84
2022/10/11 06:24:12;;;;;;;36.50;16.50;;;;;;;15.50;72.79;99793.56;5170044;28;20514;-84
2022/10/11 06:27:02;;;;;;;32.13;16.27;;;;;;;15.53;72.39;99797.78;5170080;28;20061;-84
2022/10/11 06:29:52;;;;;;;29.40;16.25;;;;;;;15.51;72.41;99791.75;5170082;28;20050;-85
2022/10/11 06:32:43;;;;;;;36.33;17.08;;;;;;;15.62;72.11;99790.63;5170083;28;20404;-84
2022/10/11 06:35:33;;;;;;;32.13;15.73;;;;;;;15.48;71.78;99787.53;5184264;28;20120;-84
2022/10/11 06:38:23;;;;;;;31.02;15.43;;;;;;;15.64;71.87;99813.53;5183257;28;20204;-84
2022/10/11 06:41:23;;;;;;;33.60;17.27;;;;;;;15.73;71.16;99811.81;5168948;28;20417;-83
2022/10/11 06:44:15;;;;;;;33.83;16.35;;;;;;;15.78;71.55;99814.00;5162691;28;20145;-83
2022/10/11 06:47:06;;;;;;;40.45;16.17;;;;;;;15.81;71.50;99822.56;5162128;28;20124;-84
2022/10/11 06:49:57;;;;;;;34.55;16.65;;;;;;;15.76;72.04;99797.28;5169692;28;20052;-83
2022/10/11 06:52:47;;;;;;;35.88;17.13;;;;;;;15.90;72.04;99824.28;5183243;28;20092;-84
2022/10/11 06:55:37;;;;;;;34.67;15.75;;;;;;;15.96;71.63;99829.00;5169526;28;20054;-84
2022/10/11 06:58:27;;;;;;;33.08;16.58;;;;;;;15.95;71.77;99829.16;5169557;28;20049;-84
2022/10/11 07:01:19;;;;;;;35.90;16.20;;;;;;;16.16;71.40;99836.81;5168964;28;20073;-84
2022/10/11 07:04:09;;;;;;;36.63;15.65;;;;;;;16.13;71.50;99842.47;5169140;28;20183;-84
2022/10/11 07:06:59;;;;;;;39.58;17.40;;;;;;;16.04;71.89;99846.94;5183250;28;20144;-84
2022/10/11 07:09:49;;;;;;;35.05;17.38;;;;;;;16.21;70.34;99855.88;5183117;28;20048;-85
2022/10/11 07:12:43;;;;;;;32.75;16.90;;;;;;;15.97;71.11;99846.72;5169468;28;20056;-85
2022/10/11 07:15:37;;;;;;;34.83;16.17;;;;;;;16.07;71.07;99849.28;5183155;28;20065;-83
2022/10/11 07:18:27;;;;;;;35.58;16.75;;;;;;;16.25;70.37;99867.13;5169180;28;20060;-84
2022/10/11 07:21:17;;;;;;;39.97;16.77;;;;;;;16.17;70.61;99862.56;5182516;28;20521;-84
2022/10/11 07:24:07;;;;;;;34.75;16.73;;;;;;;16.19;71.23;99856.06;5183014;28;20085;-84
2022/10/11 07:26:58;;;;;;;37.25;16.52;;;;;;;16.31;70.49;99856.59;5169584;28;20646;-83
2022/10/11 07:29:48;;;;;;;34.00;16.02;;;;;;;16.40;70.23;99857.50;5169314;28;20057;-84
2022/10/11 07:32:38;;;;;;;36.08;17.60;;;;;;;16.16;69.98;99832.31;5182572;28;20132;-84
2022/10/11 07:35:29;;;;;;;35.10;15.57;;;;;;;16.34;71.24;99876.88;5183147;28;20050;-84
2022/10/11 07:38:19;;;;;;;41.65;16.25;;;;;;;16.07;71.05;99859.16;5168863;28;20046;-83
2022/10/11 07:41:09;;;;;;;37.15;17.15;;;;;;;16.34;70.33;99867.00;5167701;28;20115;-84
2022/10/11 07:44:00;;;;;;;32.28;16.23;;;;;;;16.48;70.62;99870.91;5180457;28;20451;-83
2022/10/11 07:46:51;;;;;;;41.22;15.95;;;;;;;16.21;70.65;99863.91;5162394;28;20173;-83
2022/10/11 07:49:41;;;;;;;34.95;16.50;;;;;;;16.35;70.96;99882.03;5148907;28;20053;-84
2022/10/11 07:52:31;;;;;;;31.90;15.60;;;;;;;16.60;69.07;99887.53;5163173;28;20050;-83
2022/10/11 07:55:21;;;;;;;37.53;15.50;;;;;;;16.40;69.71;99868.19;5162483;28;20054;-84
2022/10/11 07:58:12;;;;;;;33.55;15.88;;;;;;;16.52;69.64;99855.34;5162203;28;20116;-84
2022/10/11 08:01:02;;;;;;;35.95;15.57;;;;;;;16.47;68.96;99876.44;5162904;28;20567;-83
2022/10/11 08:03:52;;;;;;;38.20;16.23;;;;;;;16.05;70.27;99863.81;5150202;28;20054;-83
2022/10/11 08:06:43;;;;;;;36.17;16.85;;;;;;;16.38;69.98;99872.88;5161611;28;20054;-84
2022/10/11 08:09:33;;;;;;;35.50;17.98;;;;;;;16.58;69.39;99886.84;5162223;28;20104;-84
2022/10/11 08:12:23;;;;;;;33.15;16.33;;;;;;;16.78;69.09;99900.84;5161543;28;20061;-84
2022/10/11 08:15:13;;;;;;;33.40;16.00;;;;;;;16.42;69.51;99891.16;5162151;28;20057;-84
2022/10/11 08:18:03;;;;;;;35.90;15.95;;;;;;;16.25;69.76;99888.53;5161696;28;20061;-84
2022/10/11 08:20:53;;;;;;;32.90;15.70;;;;;;;16.24;69.35;99886.84;5162104;28;20120;-84
2022/10/11 08:23:43;;;;;;;33.83;16.05;;;;;;;16.42;68.74;99891.16;5162391;28;20050;-84
2022/10/11 08:26:34;;;;;;;34.72;16.00;;;;;;;16.63;69.49;99908.63;5162511;28;20047;-83
2022/10/11 08:29:24;;;;;;;36.55;16.13;;;;;;;16.21;69.94;99899.53;5162529;28;20109;-84
2022/10/11 08:32:14;;;;;;;34.15;16.77;;;;;;;16.04;69.64;99881.72;5162650;28;20058;-84
2022/10/11 08:35:05;;;;;;;35.35;16.95;;;;;;;16.30;69.92;99889.72;5150216;28;20080;-84
2022/10/11 08:37:55;;;;;;;32.22;14.48;;;;;;;16.21;69.79;99894.19;5162937;28;20132;-82
2022/10/11 08:40:52;;;;;;;34.63;16.60;;;;;;;16.48;68.96;99912.91;5173517;28;20451;-84
2022/10/11 08:44:03;;;;;;;32.90;15.35;;;;;;;16.53;69.01;99907.91;5178969;28;20054;-84
2022/10/11 08:47:29;;;;;;;28.77;15.55;;;;;;;16.57;69.23;99909.28;5156359;28;20062;-83
2022/10/11 08:50:22;;;;;;;34.60;14.70;;;;;;;16.10;68.91;99890.94;5138091;28;20146;-82
2022/10/11 08:53:27;;;;;;;29.83;14.48;;;;;;;16.46;69.32;99891.66;5166611;28;20050;-83
2022/10/11 08:56:19;;;;;;;36.72;14.25;;;;;;;16.22;68.50;99868.25;5153384;28;20439;-83
2022/10/11 08:59:24;;;;;;;28.95;14.40;;;;;;;16.19;70.14;99906.91;5151757;28;20100;-83
2022/10/11 09:02:26;;;;;;;31.38;15.13;;;;;;;16.48;68.59;99904.88;5165025;28;20201;-83
2022/10/11 09:05:57;;;;;;;29.00;13.55;;;;;;;16.70;68.06;99909.66;5155015;28;20058;-84
2022/10/11 09:08:59;;;;;;;29.35;14.02;;;;;;;16.81;67.71;99916.59;5165311;28;20431;-83
2022/10/11 09:11:56;;;;;;;32.03;13.48;;;;;;;16.48;69.34;99915.56;5151549;28;20050;-84
2022/10/11 09:15:16;;;;;;;34.47;14.23;;;;;;;16.87;67.94;99906.09;5165340;28;20083;-84
2022/10/11 09:18:23;;;;;;;24.88;13.55;;;;;;;17.02;68.05;99914.34;5173295;28;20057;-84
2022/10/11 09:21:35;;;;;;;26.27;13.27;;;;;;;16.97;67.14;99905.13;5184884;28;20060;-83
2022/10/11 09:24:36;;;;;;;23.90;12.55;;;;;;;16.85;67.78;99889.34;5184890;28;20136;-83
2022/10/11 09:27:36;;;;;;;26.67;12.85;;;;;;;16.87;67.43;99881.97;5169868;28;20054;-83
2022/10/11 09:30:51;;;;;;;26.95;13.25;;;;;;;16.74;66.42;99868.16;5184708;28;20053;-83
2022/10/11 09:33:49;;;;;;;24.50;12.00;;;;;;;16.87;67.41;99900.72;5165209;28;20046;-83
2022/10/11 09:36:53;;;;;;;25.95;12.20;;;;;;;16.98;67.47;99907.63;5161006;28;20531;-85
2022/10/11 09:39:59;;;;;;;33.78;12.80;;;;;;;17.22;66.63;99890.78;5169516;28;20108;-85
2022/10/11 09:42:50;;;;;;;25.25;12.57;;;;;;;17.34;65.89;99905.53;5179419;28;20053;-83
2022/10/11 09:45:45;;;;;;;26.08;12.57;;;;;;;17.28;67.35;99908.84;5184310;28;20423;-83
2022/10/11 09:48:40;;;;;;;29.17;12.35;;;;;;;17.24;65.83;99875.34;5164772;28;20061;-84
2022/10/11 09:51:31;;;;;;;26.10;11.60;;;;;;;16.98;66.41;99882.66;5165231;28;20054;-84
2022/10/11 09:54:40;;;;;;;20.83;11.77;;;;;;;17.23;65.44;99902.34;5165498;28;20511;-83
2022/10/11 09:57:34;;;;;;;29.27;12.45;;;;;;;16.88;66.41;99902.38;5171209;28;20057;-84
2022/10/11 10:00:32;;;;;;;27.33;12.20;;;;;;;17.40;67.04;99914.75;5171885;28;20104;-85
2022/10/11 10:03:29;;;;;;;31.38;11.88;;;;;;;17.21;66.12;99907.84;5171767;28;20503;-84
2022/10/11 10:06:25;;;;;;;21.50;11.68;;;;;;;17.32;65.16;99887.94;5186279;28;20057;-84
2022/10/11 10:09:29;;;;;;;22.35;11.52;;;;;;;17.80;63.85;99911.28;5184488;28;20139;-84
2022/10/11 10:12:27;;;;;;;25.50;12.00;;;;;;;17.89;66.17;99895.22;5183787;28;20488;-85
2022/10/11 10:15:18;;;;;;;29.80;13.35;;;;;;;18.00;64.05;99900.22;5172361;28;20061;-84
2022/10/11 10:18:20;;;;;;;27.77;11.13;;;;;;;17.85;62.75;99886.66;5184328;28;20080;-85
2022/10/11 10:21:13;;;;;;;22.27;10.93;;;;;;;18.02;62.89;99911.63;5184673;28;20462;-83
2022/10/11 10:24:17;;;;;;;27.83;10.98;;;;;;;17.90;62.77;99904.91;5163428;28;20054;-84
2022/10/11 10:27:16;;;;;;;25.50;12.05;;;;;;;18.23;63.05;99906.53;5164446;28;20061;-83
2022/10/11 10:30:07;;;;;;;25.98;11.85;;;;;;;18.27;63.24;99907.88;5169213;28;20135;-83
2022/10/11 10:33:02;;;;;;;23.25;10.52;;;;;;;18.27;62.72;99883.72;5186189;28;20064;-83
2022/10/11 10:35:59;;;;;;;18.33;10.63;;;;;;;18.30;61.86;99871.81;5167122;28;20061;-83
2022/10/11 10:39:13;;;;;;;18.73;10.52;;;;;;;19.04;62.37;99891.19;5166943;28;20046;-83
2022/10/11 10:42:12;;;;;;;22.95;10.60;;;;;;;18.97;61.57;99904.50;5170237;28;20588;-82
2022/10/11 10:45:04;;;;;;;19.23;10.45;;;;;;;19.52;60.20;99901.78;5190462;28;20046;-83
2022/10/11 10:48:21;;;;;;;33.33;10.32;;;;;;;19.43;59.47;99884.84;5166401;28;20062;-85
2022/10/11 10:51:41;;;;;;;18.40;9.75;;;;;;;19.80;57.91;99888.63;5184723;28;20058;-84
2022/10/11 10:54:34;;;;;;;16.90;9.68;;;;;;;20.04;59.15;99904.56;5185892;28;20060;-84
2022/10/11 10:57:33;;;;;;;19.38;9.00;;;;;;;19.67;58.71;99873.97;5186365;28;20137;-85
2022/10/11 11:00:23;;;;;;;19.83;9.63;;;;;;;19.81;59.10;99883.09;5187270;28;20097;-84
2022/10/11 11:03:34;;;;;;;16.58;8.98;;;;;;;18.64;60.14;99878.72;5187991;28;20160;-84
2022/10/11 11:06:46;;;;;;;19.05;9.50;;;;;;;19.25;59.30;99894.06;5172552;28;20054;-84
2022/10/11 11:09:54;;;;;;;16.83;8.50;;;;;;;19.19;59.26;99894.78;5186848;28;20058;-85
2022/10/11 11:13:03;;;;;;;18.25;9.18;;;;;;;17.99;61.91;99887.81;5186287;28;20061;-84
2022/10/11 11:16:11;;;;;;;17.80;8.65;;;;;;;18.91;60.44;99896.28;5186229;28;20061;-84
2022/10/11 11:19:19;;;;;;;13.43;8.32;;;;;;;19.06;59.86;99893.69;5186162;28;20057;-85
2022/10/11 11:22:28;;;;;;;15.63;8.90;;;;;;;18.57;60.77;99891.19;5173644;28;20064;-85
2022/10/11 11:25:28;;;;;;;16.98;9.15;;;;;;;19.04;60.51;99891.19;5168261;28;20057;-85
2022/10/11 11:28:48;;;;;;;18.50;9.05;;;;;;;18.88;59.02;99891.25;5168218;28;20054;-85
2022/10/11 11:31:57;;;;;;;16.40;8.25;;;;;;;18.48;62.01;99879.66;5169168;28;20050;-84
2022/10/11 11:35:02;;;;;;;15.07;9.13;;;;;;;18.47;61.13;99875.25;5169275;28;20261;-84
2022/10/11 11:38:08;;;;;;;19.50;9.65;;;;;;;18.49;60.57;99875.94;5257884;28;20739;-73
2022/10/11 11:41:04;;;;;;;17.95;8.70;;;;;;;18.88;60.80;99875.13;5258445;28;20074;-73
2022/10/11 11:44:19;;;;;;;18.23;9.13;;;;;;;18.51;60.44;99874.75;5260396;28;20080;-73
2022/10/11 11:47:35;;;;;;;19.17;8.48;;;;;;;18.69;59.87;99879.88;5239064;28;20052;-71
2022/10/11 11:50:33;;;;;;;14.55;9.00;;;;;;;18.69;61.10;99876.38;5241009;28;20096;-72
2022/10/11 11:53:50;;;;;;;19.70;8.70;;;;;;;18.37;60.87;99878.16;5238500;28;20044;-70
2022/10/11 11:56:47;;;;;;;17.67;8.65;;;;;;;18.34;60.91;99878.50;5211540;28;20060;-71
2022/10/11 11:59:44;;;;;;;21.13;9.70;;;;;;;18.45;61.52;99878.13;5232426;28;20079;-73
2022/10/11 12:03:02;;;;;;;14.15;8.07;;;;;;;18.57;60.66;99881.28;5240563;28;20072;-72
2022/10/11 12:06:11;;;;;;;18.95;9.40;;;;;;;18.76;60.27;99872.81;5240363;28;20114;-73
2022/10/11 12:09:20;;;;;;;21.42;9.48;;;;;;;18.66;59.09;99882.09;5239776;28;20117;-73
2022/10/11 12:12:34;;;;;;;19.08;9.05;;;;;;;18.73;60.01;99883.91;5239568;28;20422;-72
2022/10/11 12:15:25;;;;;;;16.67;9.05;;;;;;;18.86;59.92;99875.31;5240318;28;20418;-72
2022/10/11 12:18:16;;;;;;;18.42;9.07;;;;;;;18.51;61.62;99879.31;5239751;28;20186;-72
2022/10/11 12:21:18;;;;;;;18.92;8.88;;;;;;;18.54;59.68;99869.06;5239530;28;20564;-72
2022/10/11 12:24:22;;;;;;;15.73;8.50;;;;;;;18.72;59.75;99876.88;5240032;28;20426;-72
2022/10/11 12:27:37;;;;;;;18.52;9.13;;;;;;;18.72;59.80;99865.31;5239283;28;20052;-72
2022/10/11 12:30:54;;;;;;;26.13;9.13;;;;;;;18.76;59.95;99866.63;5239636;28;20111;-73
2022/10/11 12:34:01;;;;;;;21.00;9.20;;;;;;;18.25;61.30;99861.59;5239359;28;20193;-73
2022/10/11 12:36:51;;;;;;;23.33;8.73;;;;;;;18.53;61.04;99855.78;5224258;28;20167;-73
2022/10/11 12:39:47;;;;;;;21.35;9.35;;;;;;;18.55;60.27;99853.75;5238922;28;20087;-71
2022/10/11 12:42:37;;;;;;;21.42;9.57;;;;;;;18.60;59.91;99867.50;5237546;28;20100;-71
2022/10/11 12:45:31;;;;;;;15.85;9.13;;;;;;;18.56;60.63;99866.19;5236975;28;20045;-71
2022/10/11 12:48:24;;;;;;;26.55;10.18;;;;;;;18.29;59.99;99865.59;5225883;28;20047;-71
2022/10/11 12:51:36;;;;;;;18.33;8.98;;;;;;;18.17;60.97;99860.75;5222939;28;20049;-73
2022/10/11 12:54:35;;;;;;;19.55;9.00;;;;;;;18.33;61.45;99866.09;5223681;28;20056;-72
2022/10/11 12:57:41;;;;;;;16.63;8.40;;;;;;;18.36;61.08;99852.31;5222898;28;20044;-71
2022/10/11 13:00:38;;;;;;;20.63;9.23;;;;;;;17.31;62.33;99849.56;5224681;28;20071;-74
2022/10/11 13:03:36;;;;;;;17.98;8.60;;;;;;;17.62;62.51;99854.28;5223932;28;20135;-72
2022/10/11 13:06:31;;;;;;;19.23;8.43;;;;;;;18.12;61.78;99853.25;5219544;28;20051;-71
2022/10/11 13:09:27;;;;;;;20.50;9.25;;;;;;;18.26;62.01;99852.50;5221925;28;20049;-72
2022/10/11 13:12:22;;;;;;;23.38;9.07;;;;;;;18.26;60.68;99849.84;5222148;28;20045;-74
2022/10/11 13:15:15;;;;;;;20.35;9.02;;;;;;;18.51;60.71;99839.84;5222936;28;20483;-72
2022/10/11 13:18:12;;;;;;;21.08;9.20;;;;;;;18.70;60.09;99853.84;5222115;28;20079;-72
2022/10/11 13:21:18;;;;;;;23.77;9.77;;;;;;;18.75;58.95;99846.97;5221064;28;20673;-74
2022/10/11 13:24:16;;;;;;;20.70;9.43;;;;;;;18.50;59.92;99848.06;5222938;28;20629;-72
2022/10/11 13:27:06;;;;;;;24.05;8.63;;;;;;;17.95;61.26;99832.81;5221454;28;20159;-75
2022/10/11 13:29:59;;;;;;;20.48;9.38;;;;;;;18.43;61.28;99842.56;5223301;28;20128;-73
2022/10/11 13:32:51;;;;;;;20.20;9.40;;;;;;;17.92;61.68;99831.31;5222338;28;20153;-74